sensor_id;sensor_type;location;lat;lon;timestamp;P1;durP1;ratioP1;P2;durP2;ratioP2
52470;SDS011;38382;53.160;7.026;2022-07-22T00:01:55;9.18;;;2.08;;
52470;SDS011;38382;53.160;7.026;2022-07-22T00:04:21;5.50;;;1.80;;
52470;SDS011;38382;53.160;7.026;2022-07-22T00:06:47;9.13;;;2.20;;
52470;SDS011;38382;53.160;7.026;2022-07-22T00:09:12;8.85;;;2.40;;
52470;SDS011;38382;53.160;7.026;2022-07-22T00:11:38;8.05;;;1.73;;
52470;SDS011;38382;53.160;7.026;2022-07-22T00:14:08;9.65;;;2.53;;
52470;SDS011;38382;53.160;7.026;2022-07-22T00:16:33;7.78;;;2.42;;
52470;SDS011;38382;53.160;7.026;2022-07-22T00:18:59;6.82;;;2.38;;
52470;SDS011;38382;53.160;7.026;2022-07-22T00:21:25;13.15;;;3.45;;
52470;SDS011;38382;53.160;7.026;2022-07-22T00:23:50;6.97;;;2.72;;
52470;SDS011;38382;53.160;7.026;2022-07-22T00:26:16;10.65;;;2.50;;
52470;SDS011;38382;53.160;7.026;2022-07-22T00:28:42;10.27;;;2.70;;
52470;SDS011;38382;53.160;7.026;2022-07-22T00:31:08;13.95;;;3.40;;
52470;SDS011;38382;53.160;7.026;2022-07-22T00:33:33;10.75;;;2.90;;
52470;SDS011;38382;53.160;7.026;2022-07-22T00:35:59;18.27;;;5.70;;
52470;SDS011;38382;53.160;7.026;2022-07-22T00:38:25;8.93;;;2.72;;
52470;SDS011;38382;53.160;7.026;2022-07-22T00:40:50;10.13;;;3.45;;
52470;SDS011;38382;53.160;7.026;2022-07-22T00:43:16;13.40;;;3.55;;
52470;SDS011;38382;53.160;7.026;2022-07-22T00:45:41;14.32;;;3.55;;
52470;SDS011;38382;53.160;7.026;2022-07-22T00:48:07;11.95;;;4.07;;
52470;SDS011;38382;53.160;7.026;2022-07-22T00:50:33;8.65;;;2.83;;
52470;SDS011;38382;53.160;7.026;2022-07-22T00:52:59;9.65;;;2.97;;
52470;SDS011;38382;53.160;7.026;2022-07-22T00:55:25;10.25;;;3.80;;
52470;SDS011;38382;53.160;7.026;2022-07-22T00:57:52;14.52;;;4.10;;
52470;SDS011;38382;53.160;7.026;2022-07-22T01:00:18;12.32;;;4.10;;
52470;SDS011;38382;53.160;7.026;2022-07-22T01:02:46;10.63;;;2.95;;
52470;SDS011;38382;53.160;7.026;2022-07-22T01:05:12;15.30;;;4.50;;
52470;SDS011;38382;53.160;7.026;2022-07-22T01:07:38;11.52;;;3.90;;
52470;SDS011;38382;53.160;7.026;2022-07-22T01:10:05;10.63;;;4.18;;
52470;SDS011;38382;53.160;7.026;2022-07-22T01:12:32;11.95;;;3.63;;
52470;SDS011;38382;53.160;7.026;2022-07-22T01:14:57;10.02;;;3.10;;
52470;SDS011;38382;53.160;7.026;2022-07-22T01:17:23;11.25;;;3.72;;
52470;SDS011;38382;53.160;7.026;2022-07-22T01:19:49;12.57;;;3.45;;
52470;SDS011;38382;53.160;7.026;2022-07-22T01:22:15;17.55;;;4.68;;
52470;SDS011;38382;53.160;7.026;2022-07-22T01:24:41;14.77;;;4.25;;
52470;SDS011;38382;53.160;7.026;2022-07-22T01:27:07;8.27;;;3.25;;
52470;SDS011;38382;53.160;7.026;2022-07-22T01:29:33;9.85;;;3.30;;
52470;SDS011;38382;53.160;7.026;2022-07-22T01:31:58;17.70;;;4.80;;
52470;SDS011;38382;53.160;7.026;2022-07-22T01:34:24;7.47;;;2.83;;
52470;SDS011;38382;53.160;7.026;2022-07-22T01:36:50;10.80;;;3.33;;
52470;SDS011;38382;53.160;7.026;2022-07-22T01:39:16;12.35;;;3.55;;
52470;SDS011;38382;53.160;7.026;2022-07-22T01:41:42;9.88;;;3.30;;
52470;SDS011;38382;53.160;7.026;2022-07-22T01:44:08;12.38;;;3.15;;
52470;SDS011;38382;53.160;7.026;2022-07-22T01:46:35;8.98;;;3.28;;
52470;SDS011;38382;53.160;7.026;2022-07-22T01:49:00;10.13;;;3.28;;
52470;SDS011;38382;53.160;7.026;2022-07-22T01:51:26;7.38;;;3.00;;
52470;SDS011;38382;53.160;7.026;2022-07-22T01:53:52;11.02;;;3.65;;
52470;SDS011;38382;53.160;7.026;2022-07-22T01:56:18;12.27;;;3.33;;
52470;SDS011;38382;53.160;7.026;2022-07-22T01:58:44;11.85;;;3.65;;
52470;SDS011;38382;53.160;7.026;2022-07-22T02:01:09;9.05;;;3.20;;
52470;SDS011;38382;53.160;7.026;2022-07-22T02:03:35;10.13;;;3.38;;
52470;SDS011;38382;53.160;7.026;2022-07-22T02:06:01;9.57;;;3.33;;
52470;SDS011;38382;53.160;7.026;2022-07-22T02:08:28;10.25;;;2.97;;
52470;SDS011;38382;53.160;7.026;2022-07-22T02:10:54;8.75;;;3.42;;
52470;SDS011;38382;53.160;7.026;2022-07-22T02:13:20;12.35;;;3.80;;
52470;SDS011;38382;53.160;7.026;2022-07-22T02:15:46;9.82;;;2.95;;
52470;SDS011;38382;53.160;7.026;2022-07-22T02:18:12;10.15;;;2.92;;
52470;SDS011;38382;53.160;7.026;2022-07-22T02:20:39;9.85;;;3.33;;
52470;SDS011;38382;53.160;7.026;2022-07-22T02:23:05;12.15;;;3.33;;
52470;SDS011;38382;53.160;7.026;2022-07-22T02:25:31;14.60;;;3.42;;
52470;SDS011;38382;53.160;7.026;2022-07-22T02:27:57;13.32;;;3.55;;
52470;SDS011;38382;53.160;7.026;2022-07-22T02:30:23;7.80;;;3.05;;
52470;SDS011;38382;53.160;7.026;2022-07-22T02:32:49;6.75;;;2.60;;
52470;SDS011;38382;53.160;7.026;2022-07-22T02:35:14;12.93;;;2.88;;
52470;SDS011;38382;53.160;7.026;2022-07-22T02:37:40;10.27;;;2.90;;
52470;SDS011;38382;53.160;7.026;2022-07-22T02:40:24;13.15;;;3.20;;
52470;SDS011;38382;53.160;7.026;2022-07-22T02:42:50;10.30;;;2.70;;
52470;SDS011;38382;53.160;7.026;2022-07-22T02:45:15;10.15;;;2.95;;
52470;SDS011;38382;53.160;7.026;2022-07-22T02:47:48;9.30;;;2.92;;
52470;SDS011;38382;53.160;7.026;2022-07-22T02:50:16;9.95;;;3.17;;
52470;SDS011;38382;53.160;7.026;2022-07-22T02:52:41;7.97;;;2.65;;
52470;SDS011;38382;53.160;7.026;2022-07-22T02:55:08;8.60;;;2.85;;
52470;SDS011;38382;53.160;7.026;2022-07-22T02:57:34;11.02;;;2.80;;
52470;SDS011;38382;53.160;7.026;2022-07-22T03:00:00;8.07;;;2.60;;
52470;SDS011;38382;53.160;7.026;2022-07-22T03:02:26;12.95;;;2.80;;
52470;SDS011;38382;53.160;7.026;2022-07-22T03:04:51;9.38;;;2.60;;
52470;SDS011;38382;53.160;7.026;2022-07-22T03:07:17;6.90;;;2.67;;
52470;SDS011;38382;53.160;7.026;2022-07-22T03:09:43;7.78;;;2.70;;
52470;SDS011;38382;53.160;7.026;2022-07-22T03:12:10;6.05;;;2.50;;
52470;SDS011;38382;53.160;7.026;2022-07-22T03:14:36;10.68;;;2.58;;
52470;SDS011;38382;53.160;7.026;2022-07-22T03:17:01;7.50;;;2.30;;
52470;SDS011;38382;53.160;7.026;2022-07-22T03:19:27;9.15;;;2.83;;
52470;SDS011;38382;53.160;7.026;2022-07-22T03:21:53;9.23;;;2.35;;
52470;SDS011;38382;53.160;7.026;2022-07-22T03:26:44;9.77;;;2.60;;
52470;SDS011;38382;53.160;7.026;2022-07-22T03:29:09;6.68;;;2.30;;
52470;SDS011;38382;53.160;7.026;2022-07-22T03:31:35;7.45;;;2.70;;
52470;SDS011;38382;53.160;7.026;2022-07-22T03:34:01;8.82;;;2.35;;
52470;SDS011;38382;53.160;7.026;2022-07-22T03:36:27;13.18;;;3.00;;
52470;SDS011;38382;53.160;7.026;2022-07-22T03:38:56;10.50;;;2.50;;
52470;SDS011;38382;53.160;7.026;2022-07-22T03:41:22;10.88;;;2.70;;
52470;SDS011;38382;53.160;7.026;2022-07-22T03:43:48;11.05;;;2.80;;
52470;SDS011;38382;53.160;7.026;2022-07-22T03:46:14;8.80;;;2.60;;
52470;SDS011;38382;53.160;7.026;2022-07-22T03:48:40;7.90;;;2.60;;
52470;SDS011;38382;53.160;7.026;2022-07-22T03:51:05;9.45;;;2.55;;
52470;SDS011;38382;53.160;7.026;2022-07-22T03:53:31;10.27;;;2.53;;
52470;SDS011;38382;53.160;7.026;2022-07-22T03:56:00;9.98;;;2.80;;
52470;SDS011;38382;53.160;7.026;2022-07-22T03:58:26;9.45;;;2.78;;
52470;SDS011;38382;53.160;7.026;2022-07-22T04:00:53;9.20;;;2.35;;
52470;SDS011;38382;53.160;7.026;2022-07-22T04:03:19;8.70;;;2.50;;
52470;SDS011;38382;53.160;7.026;2022-07-22T04:05:45;6.75;;;2.25;;
52470;SDS011;38382;53.160;7.026;2022-07-22T04:08:11;7.55;;;2.60;;
52470;SDS011;38382;53.160;7.026;2022-07-22T04:10:37;8.73;;;2.60;;
52470;SDS011;38382;53.160;7.026;2022-07-22T04:13:03;6.43;;;2.50;;
52470;SDS011;38382;53.160;7.026;2022-07-22T04:15:29;7.03;;;2.33;;
52470;SDS011;38382;53.160;7.026;2022-07-22T04:17:55;7.90;;;2.70;;
52470;SDS011;38382;53.160;7.026;2022-07-22T04:20:21;9.63;;;2.50;;
52470;SDS011;38382;53.160;7.026;2022-07-22T04:22:47;9.48;;;2.63;;
52470;SDS011;38382;53.160;7.026;2022-07-22T04:25:12;7.90;;;2.88;;
52470;SDS011;38382;53.160;7.026;2022-07-22T04:27:39;5.65;;;2.20;;
52470;SDS011;38382;53.160;7.026;2022-07-22T04:30:05;5.70;;;2.67;;
52470;SDS011;38382;53.160;7.026;2022-07-22T04:32:31;6.63;;;2.58;;
52470;SDS011;38382;53.160;7.026;2022-07-22T04:34:57;9.82;;;2.53;;
52470;SDS011;38382;53.160;7.026;2022-07-22T04:37:23;6.72;;;2.38;;
52470;SDS011;38382;53.160;7.026;2022-07-22T04:39:49;9.20;;;2.47;;
52470;SDS011;38382;53.160;7.026;2022-07-22T04:42:14;7.15;;;2.20;;
52470;SDS011;38382;53.160;7.026;2022-07-22T04:44:40;8.80;;;2.30;;
52470;SDS011;38382;53.160;7.026;2022-07-22T04:47:06;9.25;;;2.53;;
52470;SDS011;38382;53.160;7.026;2022-07-22T04:49:32;9.68;;;2.90;;
52470;SDS011;38382;53.160;7.026;2022-07-22T04:51:57;9.68;;;2.83;;
52470;SDS011;38382;53.160;7.026;2022-07-22T04:56:52;9.18;;;2.47;;
52470;SDS011;38382;53.160;7.026;2022-07-22T04:59:18;8.18;;;2.50;;
52470;SDS011;38382;53.160;7.026;2022-07-22T05:01:43;6.97;;;2.42;;
52470;SDS011;38382;53.160;7.026;2022-07-22T05:04:09;7.88;;;2.40;;
52470;SDS011;38382;53.160;7.026;2022-07-22T05:06:35;6.00;;;2.20;;
52470;SDS011;38382;53.160;7.026;2022-07-22T05:09:01;10.82;;;2.60;;
52470;SDS011;38382;53.160;7.026;2022-07-22T05:11:26;5.57;;;2.10;;
52470;SDS011;38382;53.160;7.026;2022-07-22T05:13:52;8.30;;;2.10;;
52470;SDS011;38382;53.160;7.026;2022-07-22T05:16:18;8.70;;;2.60;;
52470;SDS011;38382;53.160;7.026;2022-07-22T05:18:43;10.15;;;2.33;;
52470;SDS011;38382;53.160;7.026;2022-07-22T05:21:09;6.47;;;2.58;;
52470;SDS011;38382;53.160;7.026;2022-07-22T05:23:35;5.70;;;2.40;;
52470;SDS011;38382;53.160;7.026;2022-07-22T05:26:01;7.45;;;2.60;;
52470;SDS011;38382;53.160;7.026;2022-07-22T05:28:28;8.27;;;2.58;;
52470;SDS011;38382;53.160;7.026;2022-07-22T05:30:54;7.80;;;2.25;;
52470;SDS011;38382;53.160;7.026;2022-07-22T05:33:20;8.18;;;2.70;;
52470;SDS011;38382;53.160;7.026;2022-07-22T05:35:46;6.38;;;2.28;;
52470;SDS011;38382;53.160;7.026;2022-07-22T05:38:11;7.43;;;2.13;;
52470;SDS011;38382;53.160;7.026;2022-07-22T05:40:37;6.22;;;2.38;;
52470;SDS011;38382;53.160;7.026;2022-07-22T05:43:03;5.80;;;2.13;;
52470;SDS011;38382;53.160;7.026;2022-07-22T05:45:29;8.23;;;2.42;;
52470;SDS011;38382;53.160;7.026;2022-07-22T05:47:54;6.72;;;2.20;;
52470;SDS011;38382;53.160;7.026;2022-07-22T05:50:20;8.90;;;2.30;;
52470;SDS011;38382;53.160;7.026;2022-07-22T05:52:46;7.00;;;2.22;;
52470;SDS011;38382;53.160;7.026;2022-07-22T05:59:43;8.75;;;2.20;;
52470;SDS011;38382;53.160;7.026;2022-07-22T06:02:09;10.57;;;2.65;;
52470;SDS011;38382;53.160;7.026;2022-07-22T06:04:35;8.68;;;2.40;;
52470;SDS011;38382;53.160;7.026;2022-07-22T06:07:00;8.85;;;1.95;;
52470;SDS011;38382;53.160;7.026;2022-07-22T06:09:26;7.47;;;2.40;;
52470;SDS011;38382;53.160;7.026;2022-07-22T06:11:52;6.72;;;1.95;;
52470;SDS011;38382;53.160;7.026;2022-07-22T06:14:18;8.30;;;2.80;;
52470;SDS011;38382;53.160;7.026;2022-07-22T06:16:43;6.20;;;2.13;;
52470;SDS011;38382;53.160;7.026;2022-07-22T06:19:09;9.48;;;1.90;;
52470;SDS011;38382;53.160;7.026;2022-07-22T06:21:35;7.68;;;1.95;;
52470;SDS011;38382;53.160;7.026;2022-07-22T06:24:01;7.38;;;1.98;;
52470;SDS011;38382;53.160;7.026;2022-07-22T06:26:27;6.70;;;2.45;;
52470;SDS011;38382;53.160;7.026;2022-07-22T06:28:53;6.53;;;2.30;;
52470;SDS011;38382;53.160;7.026;2022-07-22T06:31:18;5.57;;;2.08;;
52470;SDS011;38382;53.160;7.026;2022-07-22T06:33:44;6.32;;;2.00;;
52470;SDS011;38382;53.160;7.026;2022-07-22T06:36:10;9.25;;;2.13;;
52470;SDS011;38382;53.160;7.026;2022-07-22T06:38:36;6.45;;;1.95;;
52470;SDS011;38382;53.160;7.026;2022-07-22T06:41:02;7.15;;;2.00;;
52470;SDS011;38382;53.160;7.026;2022-07-22T06:43:27;7.32;;;2.00;;
52470;SDS011;38382;53.160;7.026;2022-07-22T06:45:54;5.68;;;1.85;;
52470;SDS011;38382;53.160;7.026;2022-07-22T06:48:19;9.30;;;2.20;;
52470;SDS011;38382;53.160;7.026;2022-07-22T06:50:45;6.90;;;2.35;;
52470;SDS011;38382;53.160;7.026;2022-07-22T06:53:11;5.05;;;2.10;;
52470;SDS011;38382;53.160;7.026;2022-07-22T06:55:37;4.32;;;1.85;;
52470;SDS011;38382;53.160;7.026;2022-07-22T06:58:02;4.20;;;1.65;;
52470;SDS011;38382;53.160;7.026;2022-07-22T07:00:28;6.50;;;1.90;;
52470;SDS011;38382;53.160;7.026;2022-07-22T07:02:57;3.05;;;1.60;;
52470;SDS011;38382;53.160;7.026;2022-07-22T07:05:24;3.83;;;1.70;;
52470;SDS011;38382;53.160;7.026;2022-07-22T07:07:52;7.00;;;2.10;;
52470;SDS011;38382;53.160;7.026;2022-07-22T07:10:18;6.45;;;1.80;;
52470;SDS011;38382;53.160;7.026;2022-07-22T07:12:44;4.55;;;1.80;;
52470;SDS011;38382;53.160;7.026;2022-07-22T07:15:10;6.57;;;1.60;;
52470;SDS011;38382;53.160;7.026;2022-07-22T07:17:37;5.80;;;1.75;;
52470;SDS011;38382;53.160;7.026;2022-07-22T07:20:03;3.95;;;1.80;;
52470;SDS011;38382;53.160;7.026;2022-07-22T07:22:30;5.35;;;1.90;;
52470;SDS011;38382;53.160;7.026;2022-07-22T07:24:56;5.72;;;1.65;;
52470;SDS011;38382;53.160;7.026;2022-07-22T07:27:26;5.57;;;2.00;;
52470;SDS011;38382;53.160;7.026;2022-07-22T07:29:53;6.80;;;1.70;;
52470;SDS011;38382;53.160;7.026;2022-07-22T07:32:18;6.38;;;1.83;;
52470;SDS011;38382;53.160;7.026;2022-07-22T07:34:44;6.80;;;2.20;;
52470;SDS011;38382;53.160;7.026;2022-07-22T07:37:10;6.20;;;1.80;;
52470;SDS011;38382;53.160;7.026;2022-07-22T07:39:37;6.05;;;1.60;;
52470;SDS011;38382;53.160;7.026;2022-07-22T07:42:02;3.90;;;1.30;;
52470;SDS011;38382;53.160;7.026;2022-07-22T07:44:28;6.22;;;1.67;;
52470;SDS011;38382;53.160;7.026;2022-07-22T07:46:54;4.88;;;1.50;;
52470;SDS011;38382;53.160;7.026;2022-07-22T07:49:20;7.35;;;2.00;;
52470;SDS011;38382;53.160;7.026;2022-07-22T07:51:45;6.22;;;1.60;;
52470;SDS011;38382;53.160;7.026;2022-07-22T07:54:11;4.38;;;1.63;;
52470;SDS011;38382;53.160;7.026;2022-07-22T07:56:37;5.97;;;1.70;;
52470;SDS011;38382;53.160;7.026;2022-07-22T07:59:02;6.18;;;1.70;;
52470;SDS011;38382;53.160;7.026;2022-07-22T08:01:28;5.85;;;1.70;;
52470;SDS011;38382;53.160;7.026;2022-07-22T08:03:54;6.15;;;1.60;;
52470;SDS011;38382;53.160;7.026;2022-07-22T08:06:20;5.80;;;1.70;;
52470;SDS011;38382;53.160;7.026;2022-07-22T08:08:45;5.13;;;1.50;;
52470;SDS011;38382;53.160;7.026;2022-07-22T08:11:11;5.10;;;1.63;;
52470;SDS011;38382;53.160;7.026;2022-07-22T08:13:37;4.95;;;1.70;;
52470;SDS011;38382;53.160;7.026;2022-07-22T08:16:03;6.55;;;1.50;;
52470;SDS011;38382;53.160;7.026;2022-07-22T08:18:29;6.13;;;1.60;;
52470;SDS011;38382;53.160;7.026;2022-07-22T08:20:55;5.38;;;1.50;;
52470;SDS011;38382;53.160;7.026;2022-07-22T08:23:21;6.82;;;1.70;;
52470;SDS011;38382;53.160;7.026;2022-07-22T08:25:48;2.95;;;1.40;;
52470;SDS011;38382;53.160;7.026;2022-07-22T08:28:14;3.70;;;1.40;;
52470;SDS011;38382;53.160;7.026;2022-07-22T08:30:40;8.20;;;2.00;;
52470;SDS011;38382;53.160;7.026;2022-07-22T08:33:06;7.00;;;1.77;;
52470;SDS011;38382;53.160;7.026;2022-07-22T08:35:33;4.45;;;1.40;;
52470;SDS011;38382;53.160;7.026;2022-07-22T08:37:59;4.15;;;1.50;;
52470;SDS011;38382;53.160;7.026;2022-07-22T08:40:24;4.43;;;1.50;;
52470;SDS011;38382;53.160;7.026;2022-07-22T08:42:50;3.97;;;1.40;;
52470;SDS011;38382;53.160;7.026;2022-07-22T08:45:17;5.80;;;1.42;;
52470;SDS011;38382;53.160;7.026;2022-07-22T08:47:48;3.95;;;1.60;;
52470;SDS011;38382;53.160;7.026;2022-07-22T08:50:15;5.28;;;1.48;;
52470;SDS011;38382;53.160;7.026;2022-07-22T08:52:41;3.50;;;1.20;;
52470;SDS011;38382;53.160;7.026;2022-07-22T08:55:08;4.95;;;1.50;;
52470;SDS011;38382;53.160;7.026;2022-07-22T08:57:35;5.15;;;1.70;;
52470;SDS011;38382;53.160;7.026;2022-07-22T09:00:07;6.50;;;1.50;;
52470;SDS011;38382;53.160;7.026;2022-07-22T09:02:36;3.72;;;1.50;;
52470;SDS011;38382;53.160;7.026;2022-07-22T09:05:04;4.05;;;1.40;;
52470;SDS011;38382;53.160;7.026;2022-07-22T09:07:38;6.53;;;1.70;;
52470;SDS011;38382;53.160;7.026;2022-07-22T09:10:06;4.93;;;1.58;;
52470;SDS011;38382;53.160;7.026;2022-07-22T09:12:34;4.38;;;1.60;;
52470;SDS011;38382;53.160;7.026;2022-07-22T09:15:01;4.15;;;1.50;;
52470;SDS011;38382;53.160;7.026;2022-07-22T09:19:58;4.97;;;1.33;;
52470;SDS011;38382;53.160;7.026;2022-07-22T09:22:31;5.55;;;1.40;;
52470;SDS011;38382;53.160;7.026;2022-07-22T09:24:59;4.43;;;1.33;;
52470;SDS011;38382;53.160;7.026;2022-07-22T09:30:35;4.47;;;1.30;;
52470;SDS011;38382;53.160;7.026;2022-07-22T09:33:10;8.45;;;1.52;;
52470;SDS011;38382;53.160;7.026;2022-07-22T09:35:36;3.67;;;1.30;;
52470;SDS011;38382;53.160;7.026;2022-07-22T09:38:05;5.60;;;1.30;;
52470;SDS011;38382;53.160;7.026;2022-07-22T09:40:33;6.47;;;1.70;;
52470;SDS011;38382;53.160;7.026;2022-07-22T09:43:11;5.32;;;1.42;;
52470;SDS011;38382;53.160;7.026;2022-07-22T09:45:47;6.97;;;1.98;;
52470;SDS011;38382;53.160;7.026;2022-07-22T09:48:22;5.50;;;1.40;;
52470;SDS011;38382;53.160;7.026;2022-07-22T09:50:49;3.35;;;1.40;;
52470;SDS011;38382;53.160;7.026;2022-07-22T09:53:16;3.95;;;1.38;;
52470;SDS011;38382;53.160;7.026;2022-07-22T09:55:45;4.30;;;1.40;;
52470;SDS011;38382;53.160;7.026;2022-07-22T09:58:11;5.75;;;1.60;;
52470;SDS011;38382;53.160;7.026;2022-07-22T10:00:37;4.88;;;1.65;;
52470;SDS011;38382;53.160;7.026;2022-07-22T10:03:06;5.47;;;1.40;;
52470;SDS011;38382;53.160;7.026;2022-07-22T10:05:34;6.10;;;1.95;;
52470;SDS011;38382;53.160;7.026;2022-07-22T10:08:05;5.50;;;1.80;;
52470;SDS011;38382;53.160;7.026;2022-07-22T10:10:32;5.80;;;1.60;;
52470;SDS011;38382;53.160;7.026;2022-07-22T10:12:59;4.40;;;1.40;;
52470;SDS011;38382;53.160;7.026;2022-07-22T10:15:27;3.53;;;1.15;;
52470;SDS011;38382;53.160;7.026;2022-07-22T10:17:55;5.05;;;1.40;;
52470;SDS011;38382;53.160;7.026;2022-07-22T10:20:23;4.88;;;1.58;;
52470;SDS011;38382;53.160;7.026;2022-07-22T10:25:17;4.20;;;1.40;;
52470;SDS011;38382;53.160;7.026;2022-07-22T10:30:10;4.38;;;1.50;;
52470;SDS011;38382;53.160;7.026;2022-07-22T10:32:36;5.60;;;1.30;;
52470;SDS011;38382;53.160;7.026;2022-07-22T10:45:24;3.78;;;1.33;;
52470;SDS011;38382;53.160;7.026;2022-07-22T10:47:57;7.38;;;1.50;;
52470;SDS011;38382;53.160;7.026;2022-07-22T10:53:03;5.80;;;1.35;;
52470;SDS011;38382;53.160;7.026;2022-07-22T10:55:30;6.68;;;1.63;;
52470;SDS011;38382;53.160;7.026;2022-07-22T10:57:56;4.63;;;1.60;;
52470;SDS011;38382;53.160;7.026;2022-07-22T11:00:22;5.80;;;1.40;;
52470;SDS011;38382;53.160;7.026;2022-07-22T11:02:48;5.18;;;1.60;;
52470;SDS011;38382;53.160;7.026;2022-07-22T11:05:14;5.00;;;1.45;;
52470;SDS011;38382;53.160;7.026;2022-07-22T11:07:49;6.40;;;1.50;;
52470;SDS011;38382;53.160;7.026;2022-07-22T11:10:16;5.10;;;1.27;;
52470;SDS011;38382;53.160;7.026;2022-07-22T11:12:44;4.00;;;1.38;;
52470;SDS011;38382;53.160;7.026;2022-07-22T11:15:13;5.28;;;1.75;;
52470;SDS011;38382;53.160;7.026;2022-07-22T11:17:39;5.97;;;1.50;;
52470;SDS011;38382;53.160;7.026;2022-07-22T11:20:09;4.93;;;1.40;;
52470;SDS011;38382;53.160;7.026;2022-07-22T11:22:36;5.37;;;1.30;;
52470;SDS011;38382;53.160;7.026;2022-07-22T11:25:03;2.80;;;1.20;;
52470;SDS011;38382;53.160;7.026;2022-07-22T11:27:31;2.63;;;1.10;;
52470;SDS011;38382;53.160;7.026;2022-07-22T11:29:57;3.97;;;1.50;;
52470;SDS011;38382;53.160;7.026;2022-07-22T11:32:24;3.72;;;1.23;;
52470;SDS011;38382;53.160;7.026;2022-07-22T11:34:52;5.47;;;1.50;;
52470;SDS011;38382;53.160;7.026;2022-07-22T11:37:20;7.43;;;1.50;;
52470;SDS011;38382;53.160;7.026;2022-07-22T11:39:55;4.88;;;1.25;;
52470;SDS011;38382;53.160;7.026;2022-07-22T11:42:29;4.72;;;1.27;;
52470;SDS011;38382;53.160;7.026;2022-07-22T11:44:55;4.47;;;1.23;;
52470;SDS011;38382;53.160;7.026;2022-07-22T11:47:21;4.97;;;1.35;;
52470;SDS011;38382;53.160;7.026;2022-07-22T11:49:46;4.68;;;1.30;;
52470;SDS011;38382;53.160;7.026;2022-07-22T11:52:13;5.50;;;1.50;;
52470;SDS011;38382;53.160;7.026;2022-07-22T11:54:39;8.13;;;1.40;;
52470;SDS011;38382;53.160;7.026;2022-07-22T11:57:06;5.60;;;1.83;;
52470;SDS011;38382;53.160;7.026;2022-07-22T11:59:33;6.03;;;1.33;;
52470;SDS011;38382;53.160;7.026;2022-07-22T12:02:00;6.95;;;1.40;;
52470;SDS011;38382;53.160;7.026;2022-07-22T12:04:26;4.88;;;1.40;;
52470;SDS011;38382;53.160;7.026;2022-07-22T12:06:53;4.38;;;1.20;;
52470;SDS011;38382;53.160;7.026;2022-07-22T12:09:20;3.55;;;1.25;;
52470;SDS011;38382;53.160;7.026;2022-07-22T12:11:58;3.25;;;1.42;;
52470;SDS011;38382;53.160;7.026;2022-07-22T12:14:24;4.93;;;1.55;;
52470;SDS011;38382;53.160;7.026;2022-07-22T12:19:30;5.43;;;1.50;;
52470;SDS011;38382;53.160;7.026;2022-07-22T12:22:01;4.95;;;1.40;;
52470;SDS011;38382;53.160;7.026;2022-07-22T12:27:07;5.90;;;1.40;;
52470;SDS011;38382;53.160;7.026;2022-07-22T12:29:46;3.20;;;1.30;;
52470;SDS011;38382;53.160;7.026;2022-07-22T12:32:17;2.40;;;1.20;;
52470;SDS011;38382;53.160;7.026;2022-07-22T12:37:20;4.45;;;1.30;;
52470;SDS011;38382;53.160;7.026;2022-07-22T12:42:33;2.95;;;1.13;;
52470;SDS011;38382;53.160;7.026;2022-07-22T12:52:49;4.65;;;1.13;;
52470;SDS011;38382;53.160;7.026;2022-07-22T12:55:16;4.03;;;1.08;;
52470;SDS011;38382;53.160;7.026;2022-07-22T12:57:42;3.50;;;1.08;;
52470;SDS011;38382;53.160;7.026;2022-07-22T13:00:08;2.90;;;1.10;;
52470;SDS011;38382;53.160;7.026;2022-07-22T13:02:34;3.55;;;1.25;;
52470;SDS011;38382;53.160;7.026;2022-07-22T13:05:00;5.00;;;1.40;;
52470;SDS011;38382;53.160;7.026;2022-07-22T13:07:25;2.92;;;1.23;;
52470;SDS011;38382;53.160;7.026;2022-07-22T13:09:51;2.28;;;1.20;;
52470;SDS011;38382;53.160;7.026;2022-07-22T13:12:17;3.38;;;1.20;;
52470;SDS011;38382;53.160;7.026;2022-07-22T13:14:42;4.63;;;1.40;;
52470;SDS011;38382;53.160;7.026;2022-07-22T13:17:08;3.83;;;1.23;;
52470;SDS011;38382;53.160;7.026;2022-07-22T13:19:34;3.72;;;1.40;;
52470;SDS011;38382;53.160;7.026;2022-07-22T13:22:00;3.83;;;1.10;;
52470;SDS011;38382;53.160;7.026;2022-07-22T13:26:51;2.50;;;1.08;;
52470;SDS011;38382;53.160;7.026;2022-07-22T13:29:16;3.45;;;1.20;;
52470;SDS011;38382;53.160;7.026;2022-07-22T13:31:42;3.58;;;1.30;;
52470;SDS011;38382;53.160;7.026;2022-07-22T13:34:11;3.60;;;1.30;;
52470;SDS011;38382;53.160;7.026;2022-07-22T13:36:37;3.35;;;1.30;;
52470;SDS011;38382;53.160;7.026;2022-07-22T13:39:03;4.32;;;1.30;;
52470;SDS011;38382;53.160;7.026;2022-07-22T13:41:30;4.20;;;1.17;;
52470;SDS011;38382;53.160;7.026;2022-07-22T13:43:56;2.30;;;1.15;;
52470;SDS011;38382;53.160;7.026;2022-07-22T13:46:22;4.80;;;1.35;;
52470;SDS011;38382;53.160;7.026;2022-07-22T13:48:47;4.10;;;1.35;;
52470;SDS011;38382;53.160;7.026;2022-07-22T13:51:13;3.92;;;1.30;;
52470;SDS011;38382;53.160;7.026;2022-07-22T13:53:40;2.63;;;1.13;;
52470;SDS011;38382;53.160;7.026;2022-07-22T13:56:07;2.30;;;1.10;;
52470;SDS011;38382;53.160;7.026;2022-07-22T13:58:35;4.43;;;1.25;;
52470;SDS011;38382;53.160;7.026;2022-07-22T14:01:02;7.07;;;1.20;;
52470;SDS011;38382;53.160;7.026;2022-07-22T14:03:28;2.78;;;1.08;;
52470;SDS011;38382;53.160;7.026;2022-07-22T14:05:54;3.17;;;1.00;;
52470;SDS011;38382;53.160;7.026;2022-07-22T14:08:20;2.70;;;1.10;;
52470;SDS011;38382;53.160;7.026;2022-07-22T14:10:45;2.58;;;1.10;;
52470;SDS011;38382;53.160;7.026;2022-07-22T14:13:11;3.72;;;1.30;;
52470;SDS011;38382;53.160;7.026;2022-07-22T14:15:37;2.67;;;1.13;;
52470;SDS011;38382;53.160;7.026;2022-07-22T14:18:03;4.93;;;1.20;;
52470;SDS011;38382;53.160;7.026;2022-07-22T14:20:31;4.72;;;1.25;;
52470;SDS011;38382;53.160;7.026;2022-07-22T14:22:57;4.43;;;1.05;;
52470;SDS011;38382;53.160;7.026;2022-07-22T14:25:23;4.00;;;1.25;;
52470;SDS011;38382;53.160;7.026;2022-07-22T14:27:49;5.22;;;1.10;;
52470;SDS011;38382;53.160;7.026;2022-07-22T14:30:15;7.53;;;1.30;;
52470;SDS011;38382;53.160;7.026;2022-07-22T14:32:41;1.98;;;0.90;;
52470;SDS011;38382;53.160;7.026;2022-07-22T14:35:07;3.17;;;1.10;;
52470;SDS011;38382;53.160;7.026;2022-07-22T14:37:33;4.10;;;1.17;;
52470;SDS011;38382;53.160;7.026;2022-07-22T14:39:59;3.28;;;1.20;;
52470;SDS011;38382;53.160;7.026;2022-07-22T14:42:25;4.18;;;1.20;;
52470;SDS011;38382;53.160;7.026;2022-07-22T14:44:51;3.72;;;1.10;;
52470;SDS011;38382;53.160;7.026;2022-07-22T14:47:16;8.80;;;1.20;;
52470;SDS011;38382;53.160;7.026;2022-07-22T14:49:42;2.95;;;1.10;;
52470;SDS011;38382;53.160;7.026;2022-07-22T14:52:08;2.35;;;1.02;;
52470;SDS011;38382;53.160;7.026;2022-07-22T14:57:09;4.55;;;1.05;;
52470;SDS011;38382;53.160;7.026;2022-07-22T14:59:35;3.03;;;1.10;;
52470;SDS011;38382;53.160;7.026;2022-07-22T15:02:03;1.63;;;0.85;;
52470;SDS011;38382;53.160;7.026;2022-07-22T15:04:28;3.03;;;1.10;;
52470;SDS011;38382;53.160;7.026;2022-07-22T15:06:54;3.30;;;1.25;;
52470;SDS011;38382;53.160;7.026;2022-07-22T15:09:20;3.20;;;1.40;;
52470;SDS011;38382;53.160;7.026;2022-07-22T15:11:46;2.35;;;1.10;;
52470;SDS011;38382;53.160;7.026;2022-07-22T15:14:12;3.22;;;1.00;;
52470;SDS011;38382;53.160;7.026;2022-07-22T15:16:38;2.83;;;1.20;;
52470;SDS011;38382;53.160;7.026;2022-07-22T15:19:03;6.43;;;1.20;;
52470;SDS011;38382;53.160;7.026;2022-07-22T15:21:29;5.28;;;1.20;;
52470;SDS011;38382;53.160;7.026;2022-07-22T15:23:56;4.43;;;1.25;;
52470;SDS011;38382;53.160;7.026;2022-07-22T15:26:23;3.08;;;1.20;;
52470;SDS011;38382;53.160;7.026;2022-07-22T15:28:54;2.33;;;1.00;;
52470;SDS011;38382;53.160;7.026;2022-07-22T15:31:20;2.42;;;1.10;;
52470;SDS011;38382;53.160;7.026;2022-07-22T15:33:46;3.80;;;1.10;;
52470;SDS011;38382;53.160;7.026;2022-07-22T15:36:20;4.32;;;1.10;;
52470;SDS011;38382;53.160;7.026;2022-07-22T15:38:48;4.35;;;1.63;;